Flight Track Log - Related Links

Times and Time Zones

All times are in EDT time to prevent confusion due to time zone crossing. See the CTL61 flight status page for this flight to view local times or setup timezone preferences in your user account.

Time Position Orientation Groundspeed Altitude Reporting Facility
EDT Latitude Longitude Course Direction KTS MPH feet Rate Location/Type
Wed 09:21:41 PM 39.9906 -82.9006 175° South 128 147 1,300  Level Indianapolis Center
Wed 09:22:53 PM 39.9511 -82.8961 175° South 139 160 2,900 1,323 Climbing Indianapolis Center
Wed 09:23:48 PM 39.9183 -82.8842 164° South 137 158 4,100 1,301 Climbing Indianapolis Center
Wed 09:24:16 PM 39.9014 -82.8764 161° South 135 155 4,700 1,151 Climbing Indianapolis Center
Wed 09:25:01 PM 39.8739 -82.8631 160° South 141 162 5,500 1,082 Climbing Indianapolis Center
Wed 09:25:17 PM 39.8647 -82.8581 157° South 138 159 5,800 1,100 Climbing Indianapolis Center
Wed 09:26:01 PM 39.8378 -82.8397 152° Southeast 146 168 6,600 984 Climbing Indianapolis Center
Wed 09:26:18 PM 39.8278 -82.8328 152° Southeast 146 168 6,800 295 Climbing Indianapolis Center
Wed 09:27:02 PM 39.7975 -82.8164 157° South 163 188 6,900 197 Climbing Indianapolis Center
Wed 09:27:19 PM 39.7850 -82.8056 146° Southeast 164 189 7,000  Climbing Indianapolis Center
Wed 09:27:57 PM 39.7514 -82.7842 154° Southeast 205 236 6,900  Descending Indianapolis Center
Wed 09:28:21 PM 39.7356 -82.7706 147° Southeast 193 222 7,000 71 Climbing Indianapolis Center
Wed 09:29:22 PM 39.6844 -82.7383 154° Southeast 199 229 7,000  Level Indianapolis Center
Wed 09:30:23 PM 39.6353 -82.7053 153° Southeast 198 228 7,000 -49 Level Indianapolis Center
Wed 09:31:25 PM 39.5839 -82.6758 156° South 199 229 6,900 -49 Descending Indianapolis Center
Wed 09:32:26 PM 39.5317 -82.6436 155° Southeast 204 235 6,900 49 Level Indianapolis Center
Wed 09:33:27 PM 39.4811 -82.6119 154° Southeast 201 231 7,000 49 Climbing Indianapolis Center
Wed 09:34:29 PM 39.4314 -82.5794 153° Southeast 200 230 7,000  Level Indianapolis Center
Wed 09:35:30 PM 39.3819 -82.5464 153° Southeast 199 229 7,000  Level Indianapolis Center
Wed 09:36:31 PM 39.3317 -82.5111 152° Southeast 202 232 7,000  Level Indianapolis Center
Wed 09:37:33 PM 39.2761 -82.4758 154° Southeast 203 234 7,000  Level Indianapolis Center
Wed 09:38:34 PM 39.2261 -82.4439 154° Southeast 201 231 7,000 49 Level Indianapolis Center
Wed 09:39:35 PM 39.1761 -82.4108 153° Southeast 201 231 7,100  Climbing Indianapolis Center
Wed 09:40:37 PM 39.1261 -82.3767 152° Southeast 203 234 7,000 -49 Descending Indianapolis Center
Wed 09:41:38 PM 39.0764 -82.3453 154° Southeast 200 230 7,000  Level Indianapolis Center
Wed 09:42:40 PM 39.0281 -82.3111 151° Southeast 199 229 7,000  Level Indianapolis Center
Wed 09:43:41 PM 38.9672 -82.2739 155° Southeast 201 231 7,000  Level Indianapolis Center
Wed 09:44:42 PM 38.9181 -82.2406 152° Southeast 201 231 7,000  Level Indianapolis Center
Wed 09:45:44 PM 38.8678 -82.2081 153° Southeast 203 234 7,000  Level Indianapolis Center
Wed 09:46:45 PM 38.8175 -82.1747 153° Southeast 202 232 7,000 -49 Level Indianapolis Center
Wed 09:47:47 PM 38.7672 -82.1425 153° Southeast 201 231 6,900 -49 Descending Indianapolis Center
Wed 09:48:48 PM 38.7164 -82.1094 153° Southeast 204 235 6,900  Level Indianapolis Center
Wed 09:49:49 PM 38.6661 -82.0767 153° Southeast 203 234 6,900  Level Indianapolis Center
Wed 09:50:51 PM 38.6164 -82.0442 153° Southeast 201 231 6,900  Level Indianapolis Center
Wed 09:51:52 PM 38.5656 -82.0117 153° Southeast 203 234 6,900  Level Indianapolis Center
Wed 09:52:53 PM 38.5067 -81.9742 154° Southeast 200 230 6,900  Level Indianapolis Center
Wed 09:53:55 PM 38.4572 -81.9422 153° Southeast 200 230 6,900  Level Indianapolis Center
Wed 09:54:56 PM 38.4083 -81.9125 155° Southeast 196 226 6,900  Level Indianapolis Center
Wed 09:55:57 PM 38.3603 -81.8811 153° Southeast 194 223 6,900  Level Indianapolis Center
Wed 09:56:59 PM 38.3125 -81.8494 153° Southeast 194 223 6,900  Level Indianapolis Center
Wed 09:58:00 PM 38.2667 -81.8189 152° Southeast 190 219 6,900  Level Indianapolis Center
Wed 09:59:01 PM 38.2192 -81.7900 154° Southeast 189 217 6,900  Level Indianapolis Center
Wed 10:00:02 PM 38.1722 -81.7594 153° Southeast 189 217 6,900  Level Indianapolis Center
Wed 10:01:03 PM 38.1236 -81.7300 155° Southeast 191 220 6,900 98 Level Indianapolis Center
Wed 10:02:05 PM 38.0664 -81.6931 153° Southeast 191 220 7,100 98 Climbing Indianapolis Center
Wed 10:03:06 PM 38.0186 -81.6625 153° Southeast 192 221 7,100  Level Indianapolis Center
Wed 10:04:07 PM 37.9714 -81.6328 154° Southeast 190 219 7,100  Level Indianapolis Center
Wed 10:05:08 PM 37.9233 -81.6017 153° Southeast 193 222 7,100  Level Indianapolis Center
Wed 10:06:10 PM 37.8758 -81.5703 152° Southeast 193 222 7,100 -49 Level Indianapolis Center
Wed 10:07:11 PM 37.8239 -81.5375 154° Southeast 190 219 7,000 -49 Descending Indianapolis Center
Wed 10:08:12 PM 37.7767 -81.5089 154° Southeast 189 217 7,000  Level Indianapolis Center
Wed 10:09:13 PM 37.7300 -81.4789 153° Southeast 186 214 7,000  Level Indianapolis Center
Wed 10:10:14 PM 37.6858 -81.4481 151° Southeast 187 215 7,000  Level Indianapolis Center
Wed 10:11:16 PM 37.6422 -81.4142 148° Southeast 189 217 7,000  Level Indianapolis Center
Wed 10:12:17 PM 37.6022 -81.3764 143° Southeast 192 221 7,000  Level Indianapolis Center
Wed 10:13:18 PM 37.5711 -81.3036 118° Southeast 201 231 7,000  Level Indianapolis Center
Wed 10:14:19 PM 37.5411 -81.2481 124° Southeast 196 226 7,000 -344 Level Indianapolis Center
Wed 10:15:20 PM 37.5108 -81.1894 123° Southeast 203 234 6,300 -488 Descending Indianapolis Center
Wed 10:16:22 PM 37.4772 -81.1361 128° Southeast 201 231 6,000 -195 Descending Indianapolis Center
Wed 10:17:23 PM 37.4367 -81.0861 136° Southeast 182 209 5,900 -246 Descending Indianapolis Center
Wed 10:18:24 PM 37.3981 -81.0939 189° South 155 178 5,500 -541 Descending Indianapolis Center
Wed 10:19:25 PM 37.3647 -81.1317 222° Southwest 151 174 4,800 -787 Descending Indianapolis Center
Wed 10:20:26 PM 37.3342 -81.1619 218° Southwest 145 167 3,900 -590 Descending Indianapolis Center
Wed 10:21:27 PM 37.3069 -81.1906 220° Southwest 140 161 3,600 -295 Descending Indianapolis Center
Wed 10:23:00 PM 37.2833 -81.2000 174° South  Level FlightAware Approximate
Wed 10:30:00 PM 37.2958 -81.2077 174° South  Level Estimated

Login

Don't have an account? Register now (free) for customized features, flight alerts, and more!